createdAt,value
2017-09-20T00:00:39.470Z,10.20
2017-09-20T00:03:07.336Z,10.20
2017-09-20T00:05:35.026Z,10.10
2017-09-20T00:08:02.751Z,10.10
2017-09-20T00:10:30.501Z,10.20
2017-09-20T00:12:59.040Z,10.20
2017-09-20T00:15:27.012Z,10.20
2017-09-20T00:17:54.828Z,10.20
2017-09-20T00:20:22.508Z,10.20
2017-09-20T00:22:50.240Z,10.20
2017-09-20T00:25:18.945Z,10.10
2017-09-20T00:27:46.679Z,10.10
2017-09-20T00:30:15.211Z,10.20
2017-09-20T00:32:43.880Z,10.20
2017-09-20T00:35:12.456Z,10.20
2017-09-20T00:37:40.216Z,10.20
2017-09-20T00:40:08.663Z,10.20
2017-09-20T00:42:36.321Z,10.20
2017-09-20T00:45:04.068Z,10.20
2017-09-20T00:47:31.755Z,10.10
2017-09-20T00:49:59.456Z,10.00
2017-09-20T00:52:27.311Z,9.90
2017-09-20T00:54:54.992Z,9.80
2017-09-20T00:57:23.571Z,9.90
2017-09-20T00:59:52.192Z,9.90
2017-09-20T01:02:19.838Z,9.90
2017-09-20T01:04:47.625Z,9.80
2017-09-20T01:07:15.351Z,9.70
2017-09-20T01:09:43.791Z,9.50
2017-09-20T01:12:11.349Z,9.50
2017-09-20T01:14:39.061Z,9.40
2017-09-20T01:17:07.058Z,9.20
2017-09-20T01:19:34.697Z,9.20
2017-09-20T01:22:14.205Z,9.00
2017-09-20T01:24:41.770Z,9.00
2017-09-20T01:27:10.126Z,8.80
2017-09-20T01:29:38.071Z,8.80
2017-09-20T01:32:05.897Z,8.90
2017-09-20T01:34:34.628Z,9.10
2017-09-20T01:37:02.456Z,9.10
2017-09-20T01:39:30.979Z,9.20
2017-09-20T01:41:59.457Z,9.20
2017-09-20T01:44:27.319Z,9.20
2017-09-20T01:46:54.985Z,9.30
2017-09-20T01:49:22.834Z,9.40
2017-09-20T01:51:51.391Z,9.50
2017-09-20T01:54:19.142Z,9.50
2017-09-20T01:56:46.969Z,9.50
2017-09-20T01:59:14.723Z,9.60
2017-09-20T02:01:42.566Z,9.60
2017-09-20T02:04:10.199Z,9.70
2017-09-20T02:06:38.854Z,9.60
2017-09-20T02:09:06.561Z,9.70
2017-09-20T02:11:34.873Z,9.80
2017-09-20T02:14:02.609Z,9.80
2017-09-20T02:16:30.954Z,9.90
2017-09-20T02:18:59.392Z,9.90
2017-09-20T02:21:27.727Z,10.00
2017-09-20T02:23:55.327Z,10.00
2017-09-20T02:26:23.663Z,9.90
2017-09-20T02:28:51.253Z,9.90
2017-09-20T02:31:19.588Z,9.80
2017-09-20T02:33:47.150Z,9.80
2017-09-20T02:36:14.735Z,9.70
2017-09-20T02:38:42.330Z,9.60
2017-09-20T02:41:10.719Z,9.50
2017-09-20T02:43:38.315Z,9.50
2017-09-20T02:46:05.902Z,9.50
2017-09-20T02:48:33.467Z,9.60
2017-09-20T02:51:01.027Z,9.60
2017-09-20T02:53:28.769Z,9.70
2017-09-20T02:55:56.334Z,9.70
2017-09-20T02:58:23.983Z,9.70
2017-09-20T03:00:51.565Z,9.60
2017-09-20T03:03:19.138Z,9.60
2017-09-20T03:05:46.694Z,9.50
2017-09-20T03:08:14.282Z,9.60
2017-09-20T03:10:42.614Z,9.50
2017-09-20T03:13:10.165Z,9.50
2017-09-20T03:15:37.754Z,9.60
2017-09-20T03:18:05.330Z,9.60
2017-09-20T03:20:32.909Z,9.60
2017-09-20T03:23:01.246Z,9.70
2017-09-20T03:25:28.838Z,9.70
2017-09-20T03:27:57.319Z,9.80
2017-09-20T03:30:24.884Z,9.70
2017-09-20T03:32:53.334Z,9.80
2017-09-20T03:35:21.066Z,9.80
2017-09-20T03:37:48.642Z,9.80
2017-09-20T03:40:16.215Z,9.80
2017-09-20T03:42:43.807Z,9.90
2017-09-20T03:45:11.389Z,9.90
2017-09-20T03:47:38.972Z,10.00
2017-09-20T03:50:07.210Z,10.00
2017-09-20T03:52:34.801Z,10.00
2017-09-20T03:55:02.387Z,10.00
2017-09-20T03:57:29.977Z,10.00
2017-09-20T03:59:57.570Z,10.00
2017-09-20T04:02:25.169Z,10.00
2017-09-20T04:04:52.749Z,10.00
2017-09-20T04:07:20.337Z,10.00
2017-09-20T04:09:47.902Z,10.00
2017-09-20T04:12:15.503Z,10.10
2017-09-20T04:14:43.056Z,10.10
2017-09-20T04:17:10.650Z,10.10
2017-09-20T04:19:38.244Z,10.20
2017-09-20T04:22:05.810Z,10.20
2017-09-20T04:24:34.178Z,10.20
2017-09-20T04:27:01.757Z,10.10
2017-09-20T04:29:30.153Z,10.30
2017-09-20T04:31:57.788Z,10.20
2017-09-20T04:34:25.347Z,10.20
2017-09-20T04:36:52.946Z,10.20
2017-09-20T04:39:20.524Z,10.20
2017-09-20T04:41:48.120Z,10.20
2017-09-20T04:44:15.680Z,10.30
2017-09-20T04:46:43.265Z,10.30
2017-09-20T04:49:11.616Z,10.30
2017-09-20T04:51:39.258Z,10.30
2017-09-20T04:54:06.949Z,10.40
2017-09-20T04:56:34.539Z,10.40
2017-09-20T04:59:02.890Z,10.50
2017-09-20T05:01:30.507Z,10.50
2017-09-20T05:03:58.117Z,10.50
2017-09-20T05:06:25.732Z,10.50
2017-09-20T05:08:53.292Z,10.50
2017-09-20T05:11:20.878Z,10.60
2017-09-20T05:13:49.239Z,10.50
2017-09-20T05:16:16.826Z,10.50
2017-09-20T05:18:44.430Z,10.60
2017-09-20T05:21:12.784Z,10.70
2017-09-20T05:23:40.369Z,10.60
2017-09-20T05:26:08.710Z,10.60
2017-09-20T05:28:36.315Z,10.60
2017-09-20T05:31:04.658Z,10.60
2017-09-20T05:33:32.302Z,10.60
2017-09-20T05:35:59.881Z,10.50
2017-09-20T05:38:27.477Z,10.60
2017-09-20T05:40:55.051Z,10.60
2017-09-20T05:43:22.631Z,10.60
2017-09-20T05:45:50.198Z,10.60
2017-09-20T05:48:17.776Z,10.60
2017-09-20T05:50:45.363Z,10.60
2017-09-20T05:53:13.858Z,10.60
2017-09-20T05:55:41.434Z,10.60
2017-09-20T05:58:09.306Z,10.60
2017-09-20T06:00:36.910Z,10.60
2017-09-20T06:03:04.490Z,10.60
2017-09-20T06:05:32.122Z,10.60
2017-09-20T06:07:59.819Z,10.60
2017-09-20T06:10:27.402Z,10.70
2017-09-20T06:12:55.736Z,10.70
2017-09-20T06:15:23.336Z,10.70
2017-09-20T06:17:51.062Z,10.70
2017-09-20T06:20:18.691Z,10.70
2017-09-20T06:22:46.301Z,10.70
2017-09-20T06:25:13.885Z,10.80
2017-09-20T06:27:41.448Z,10.70
2017-09-20T06:30:09.811Z,10.80
2017-09-20T06:32:37.371Z,10.80
2017-09-20T06:35:04.959Z,10.80
2017-09-20T06:37:32.617Z,10.90
2017-09-20T06:40:00.202Z,10.90
2017-09-20T06:42:27.814Z,11.00
2017-09-20T06:44:55.399Z,11.00
2017-09-20T06:47:23.003Z,11.00
2017-09-20T06:49:50.583Z,11.00
2017-09-20T06:52:18.169Z,11.10
2017-09-20T06:54:45.859Z,11.10
2017-09-20T06:57:13.529Z,11.20
2017-09-20T06:59:41.127Z,11.10
2017-09-20T07:02:08.702Z,11.10
2017-09-20T07:04:36.297Z,11.10
2017-09-20T07:07:03.890Z,11.10
2017-09-20T07:09:31.467Z,11.10
2017-09-20T07:11:59.064Z,11.20
2017-09-20T07:14:26.641Z,11.20
2017-09-20T07:16:54.998Z,11.30
2017-09-20T07:19:22.842Z,11.30
2017-09-20T07:21:50.455Z,11.40
2017-09-20T07:24:18.832Z,11.50
2017-09-20T07:26:47.382Z,11.60
2017-09-20T07:29:15.011Z,11.50
2017-09-20T07:31:42.592Z,11.60
2017-09-20T07:34:10.157Z,11.60
2017-09-20T07:36:37.755Z,11.60
2017-09-20T07:39:05.336Z,11.70
2017-09-20T07:41:33.712Z,12.00
2017-09-20T07:44:02.071Z,12.40
2017-09-20T07:46:29.658Z,12.30
2017-09-20T07:48:58.001Z,13.00
2017-09-20T07:51:25.611Z,13.00
2017-09-20T07:53:53.355Z,13.10
2017-09-20T07:56:21.746Z,13.40
2017-09-20T07:58:50.097Z,13.70
2017-09-20T08:01:17.690Z,13.60
2017-09-20T08:03:46.079Z,13.60
2017-09-20T08:06:14.110Z,13.60
2017-09-20T08:08:41.732Z,13.70
2017-09-20T08:11:09.300Z,13.80
2017-09-20T08:13:36.900Z,13.80
2017-09-20T08:16:05.247Z,14.10
2017-09-20T08:18:32.824Z,14.00
2017-09-20T08:21:00.468Z,14.10
2017-09-20T08:23:28.050Z,14.10
2017-09-20T08:25:55.639Z,14.00
2017-09-20T08:28:23.966Z,13.50
2017-09-20T08:30:51.570Z,13.50
2017-09-20T08:33:19.169Z,13.40
2017-09-20T08:35:46.760Z,13.50
2017-09-20T08:38:14.342Z,13.90
2017-09-20T08:40:41.914Z,14.40
2017-09-20T08:43:09.479Z,14.80
2017-09-20T08:45:37.075Z,15.00
2017-09-20T08:48:04.648Z,15.40
2017-09-20T08:50:32.242Z,15.50
2017-09-20T09:04:27.554Z,15.30
2017-09-20T09:06:55.167Z,15.30
2017-09-20T09:09:22.761Z,15.60
2017-09-20T09:11:50.446Z,15.80
2017-09-20T09:14:18.814Z,15.90
2017-09-20T09:16:46.390Z,15.90
2017-09-20T09:19:14.042Z,15.80
2017-09-20T09:30:26.521Z,16.10
2017-09-20T09:32:54.101Z,16.50
2017-09-20T09:35:22.455Z,16.50
2017-09-20T09:37:50.170Z,16.40
2017-09-20T09:40:17.754Z,16.90
2017-09-20T09:42:45.425Z,17.30
2017-09-20T09:45:13.024Z,17.10
2017-09-20T09:47:40.591Z,17.60
2017-09-20T09:50:08.950Z,17.70
2017-09-20T09:52:36.542Z,17.70
2017-09-20T09:55:04.884Z,17.50
2017-09-20T09:57:32.462Z,17.50
2017-09-20T10:00:00.087Z,17.00
2017-09-20T10:02:27.701Z,16.60
2017-09-20T10:04:56.031Z,15.70
2017-09-20T10:07:23.616Z,15.70
2017-09-20T10:09:51.199Z,15.50
2017-09-20T10:12:19.585Z,15.60
2017-09-20T10:14:48.005Z,16.40
2017-09-20T10:17:15.595Z,16.30
2017-09-20T10:19:43.187Z,17.40
2017-09-20T10:22:44.931Z,17.40
2017-09-20T10:25:12.518Z,17.40
2017-09-20T10:27:40.861Z,18.10
2017-09-20T10:30:08.414Z,18.10
2017-09-20T10:32:36.006Z,17.70
2017-09-20T10:35:03.559Z,17.90
2017-09-20T10:37:31.119Z,18.30
2017-09-20T10:39:58.716Z,18.60
2017-09-20T10:42:27.043Z,18.70
2017-09-20T10:44:54.644Z,18.70
2017-09-20T10:47:22.217Z,19.60
2017-09-20T10:49:49.898Z,20.50
2017-09-20T10:52:17.459Z,21.20
2017-09-20T10:54:45.016Z,20.90
2017-09-20T10:57:12.585Z,21.00
2017-09-20T10:59:40.149Z,20.60
2017-09-20T11:02:07.733Z,20.10
2017-09-20T11:04:35.323Z,19.10
2017-09-20T11:07:02.877Z,18.70
2017-09-20T11:09:30.524Z,18.50
2017-09-20T11:11:58.090Z,19.20
2017-09-20T11:14:25.676Z,20.20
2017-09-20T11:16:53.241Z,21.80
2017-09-20T11:19:20.809Z,21.90
2017-09-20T11:21:48.387Z,21.30
2017-09-20T11:24:16.790Z,20.40
2017-09-20T11:26:44.416Z,20.30
2017-09-20T11:29:12.814Z,18.90
2017-09-20T11:31:41.155Z,18.10
2017-09-20T11:34:08.721Z,18.00
2017-09-20T11:36:36.408Z,18.30
2017-09-20T11:39:03.967Z,19.90
2017-09-20T11:41:32.333Z,20.90
2017-09-20T11:44:09.935Z,20.90
2017-09-20T11:46:37.537Z,21.10
2017-09-20T11:49:05.160Z,21.50
2017-09-20T11:51:32.736Z,20.80
2017-09-20T11:54:01.213Z,19.80
2017-09-20T11:56:28.767Z,19.80
2017-09-20T11:58:56.406Z,19.80
2017-09-20T12:01:23.977Z,21.30
2017-09-20T12:03:51.575Z,20.40
2017-09-20T12:06:19.938Z,19.70
2017-09-20T12:08:47.500Z,19.70
2017-09-20T12:11:15.174Z,20.10
2017-09-20T12:13:42.742Z,19.80
2017-09-20T12:16:10.328Z,20.20
2017-09-20T12:18:38.682Z,20.30
2017-09-20T12:21:06.362Z,20.30
2017-09-20T12:23:34.694Z,21.60
2017-09-20T12:26:02.322Z,21.50
2017-09-20T12:28:29.915Z,21.80
2017-09-20T12:30:57.492Z,22.20
2017-09-20T12:33:25.061Z,21.40
2017-09-20T12:35:52.654Z,21.40
2017-09-20T12:38:21.030Z,21.00
2017-09-20T12:40:49.419Z,21.30
2017-09-20T12:43:17.766Z,21.80
2017-09-20T12:45:45.377Z,21.80
2017-09-20T12:48:12.947Z,21.30
2017-09-20T12:50:40.582Z,21.20
2017-09-20T12:53:08.990Z,21.10
2017-09-20T12:55:36.641Z,21.10
2017-09-20T12:58:04.970Z,21.70
2017-09-20T13:00:32.552Z,21.60
2017-09-20T13:03:00.170Z,22.30
2017-09-20T13:05:27.912Z,22.30
2017-09-20T13:07:56.259Z,21.90
2017-09-20T13:10:23.872Z,21.90
2017-09-20T13:12:51.546Z,21.90
2017-09-20T13:15:19.112Z,21.90
2017-09-20T13:17:46.734Z,21.90
2017-09-20T13:20:14.425Z,20.80
2017-09-20T13:22:42.036Z,20.30
2017-09-20T13:25:09.595Z,20.50
2017-09-20T13:27:38.075Z,20.90
2017-09-20T13:30:05.668Z,20.70
2017-09-20T13:32:33.243Z,21.90
2017-09-20T13:35:00.808Z,21.10
2017-09-20T13:37:28.380Z,20.60
2017-09-20T13:39:55.982Z,19.50
2017-09-20T13:42:24.306Z,18.60
2017-09-20T13:44:51.893Z,18.50
2017-09-20T13:47:19.510Z,18.30
2017-09-20T13:49:47.079Z,17.90
2017-09-20T13:52:14.668Z,17.70
2017-09-20T13:54:42.272Z,17.80
2017-09-20T13:57:10.655Z,18.50
2017-09-20T13:59:39.009Z,19.00
2017-09-20T14:02:06.587Z,19.00
2017-09-20T14:04:34.922Z,18.80
2017-09-20T14:07:02.564Z,18.80
2017-09-20T14:09:30.106Z,18.80
2017-09-20T14:11:57.678Z,18.60
2017-09-20T14:14:25.239Z,18.70
2017-09-20T14:16:52.841Z,18.40
2017-09-20T14:19:20.495Z,18.20
2017-09-20T14:21:48.820Z,17.70
2017-09-20T14:24:16.424Z,17.60
2017-09-20T14:26:43.971Z,17.60
2017-09-20T14:29:11.521Z,17.50
2017-09-20T14:31:39.156Z,17.40
2017-09-20T14:34:06.774Z,17.40
2017-09-20T14:36:34.366Z,17.40
2017-09-20T14:39:01.934Z,17.20
2017-09-20T14:41:29.530Z,17.30
2017-09-20T14:43:57.137Z,17.60
2017-09-20T14:46:25.486Z,17.80
2017-09-20T14:48:53.839Z,17.90
2017-09-20T14:51:21.539Z,17.80
2017-09-20T14:53:49.891Z,18.00
2017-09-20T14:56:17.498Z,17.90
2017-09-20T14:58:45.396Z,17.60
2017-09-20T15:01:13.079Z,17.60
2017-09-20T15:03:40.649Z,17.70
2017-09-20T15:06:09.000Z,17.90
2017-09-20T15:08:37.106Z,17.90
2017-09-20T15:11:05.483Z,19.10
2017-09-20T15:13:33.102Z,19.10
2017-09-20T15:16:00.641Z,19.60
2017-09-20T15:18:28.250Z,19.60
2017-09-20T15:20:55.828Z,19.10
2017-09-20T15:23:24.282Z,18.20
2017-09-20T15:25:52.267Z,18.20
2017-09-20T15:28:19.877Z,18.20
2017-09-20T15:30:47.465Z,18.30
2017-09-20T15:33:15.039Z,18.50
2017-09-20T15:35:42.649Z,18.30
2017-09-20T15:38:11.046Z,18.30
2017-09-20T15:40:38.751Z,18.30
2017-09-20T15:43:06.317Z,18.20
2017-09-20T15:45:33.886Z,18.00
2017-09-20T15:48:01.472Z,17.60
2017-09-20T15:50:30.262Z,16.90
2017-09-20T15:52:57.918Z,16.80
2017-09-20T15:55:26.261Z,16.80
2017-09-20T15:57:53.839Z,16.70
2017-09-20T16:00:21.419Z,16.70
2017-09-20T16:02:49.002Z,16.70
2017-09-20T16:05:17.414Z,16.60
2017-09-20T16:07:45.004Z,16.60
2017-09-20T16:10:12.591Z,16.60
2017-09-20T16:12:40.926Z,16.60
2017-09-20T16:15:08.531Z,16.60
2017-09-20T16:17:36.238Z,16.60
2017-09-20T16:20:03.806Z,16.60
2017-09-20T16:22:31.362Z,16.50
2017-09-20T16:24:59.784Z,16.30
2017-09-20T16:27:27.499Z,16.30
2017-09-20T16:29:55.827Z,16.10
2017-09-20T16:32:23.414Z,16.10
2017-09-20T16:34:51.009Z,16.00
2017-09-20T16:37:19.376Z,15.80
2017-09-20T16:39:46.952Z,15.80
2017-09-20T16:42:15.331Z,15.60
2017-09-20T16:44:43.669Z,15.60
2017-09-20T16:47:11.276Z,15.50
2017-09-20T16:49:38.855Z,15.60
2017-09-20T16:52:07.215Z,15.70
2017-09-20T16:54:35.539Z,15.70
2017-09-20T16:57:03.111Z,15.70
2017-09-20T16:59:30.801Z,15.60
2017-09-20T17:01:58.484Z,15.40
2017-09-20T17:04:26.861Z,15.10
2017-09-20T17:06:54.444Z,15.10
2017-09-20T17:09:22.817Z,14.70
2017-09-20T17:11:50.455Z,14.70
2017-09-20T17:14:18.014Z,14.50
2017-09-20T17:16:45.532Z,14.50
2017-09-20T17:19:13.138Z,14.50
2017-09-20T17:21:41.497Z,14.10
2017-09-20T17:24:09.078Z,14.00
2017-09-20T17:26:38.174Z,13.70
2017-09-20T17:29:06.621Z,13.50
2017-09-20T17:31:34.218Z,13.50
2017-09-20T17:34:02.588Z,13.50
2017-09-20T17:36:30.968Z,13.40
2017-09-20T17:38:59.389Z,13.20
2017-09-20T17:41:27.107Z,13.20
2017-09-20T17:43:55.490Z,12.70
2017-09-20T17:46:23.098Z,12.70
2017-09-20T17:48:50.735Z,12.50
2017-09-20T17:51:19.096Z,12.20
2017-09-20T17:53:47.479Z,12.10
2017-09-20T17:56:15.847Z,12.00
2017-09-20T17:58:43.615Z,12.00
2017-09-20T18:01:11.576Z,11.90
2017-09-20T18:03:41.156Z,11.80
2017-09-20T18:06:08.817Z,11.80
2017-09-20T18:08:36.426Z,11.70
2017-09-20T18:11:03.997Z,11.70
2017-09-20T18:13:32.697Z,11.50
2017-09-20T18:16:01.035Z,11.40
2017-09-20T18:18:28.601Z,11.40
2017-09-20T18:20:56.359Z,11.30
2017-09-20T18:23:23.949Z,11.20
2017-09-20T18:25:52.353Z,11.10
2017-09-20T18:28:20.770Z,11.00
2017-09-20T18:30:48.430Z,10.90
2017-09-20T18:33:16.062Z,10.90
2017-09-20T18:35:44.399Z,10.80
2017-09-20T18:38:12.058Z,10.80
2017-09-20T18:40:39.915Z,10.70
2017-09-20T18:43:07.502Z,10.70
2017-09-20T18:45:35.133Z,10.60
2017-09-20T18:48:02.730Z,10.50
2017-09-20T18:50:30.560Z,10.40
2017-09-20T18:52:58.170Z,10.40
2017-09-20T18:55:25.795Z,10.40
2017-09-20T18:57:53.522Z,10.40
2017-09-20T19:00:21.152Z,10.40
2017-09-20T19:02:48.824Z,10.40
2017-09-20T19:05:16.477Z,10.40
2017-09-20T19:07:44.086Z,10.30
2017-09-20T19:10:12.593Z,10.30
2017-09-20T19:12:40.211Z,10.30
2017-09-20T19:15:08.407Z,10.30
2017-09-20T19:17:35.983Z,10.20
2017-09-20T19:20:03.555Z,10.20
2017-09-20T19:22:31.140Z,10.20
2017-09-20T19:24:59.307Z,10.20
2017-09-20T19:27:38.453Z,10.10
2017-09-20T19:30:06.107Z,10.10
2017-09-20T19:32:33.781Z,10.10
2017-09-20T19:35:01.445Z,10.10
2017-09-20T19:37:29.071Z,10.00
2017-09-20T19:39:56.750Z,9.90
2017-09-20T19:42:24.341Z,9.90
2017-09-20T19:44:51.911Z,9.80
2017-09-20T19:47:20.266Z,9.70
2017-09-20T19:49:47.869Z,9.70
2017-09-20T19:52:15.439Z,9.60
2017-09-20T19:54:43.038Z,9.60
2017-09-20T19:57:10.780Z,9.60
2017-09-20T19:59:38.634Z,9.60
2017-09-20T20:02:06.304Z,9.60
2017-09-20T20:04:33.904Z,9.60
2017-09-20T20:07:01.548Z,9.50
2017-09-20T20:09:29.130Z,9.60
2017-09-20T20:11:56.742Z,9.80
2017-09-20T20:14:24.342Z,9.90
2017-09-20T20:16:51.959Z,10.00
2017-09-20T20:19:19.557Z,10.10
2017-09-20T20:21:47.184Z,10.10
2017-09-20T20:24:14.812Z,10.10
2017-09-20T20:26:42.426Z,10.10
2017-09-20T20:29:10.032Z,10.20
2017-09-20T20:31:37.638Z,10.20
2017-09-20T20:34:06.069Z,10.50
2017-09-20T20:36:33.624Z,10.40
2017-09-20T20:39:01.278Z,10.50
2017-09-20T20:41:29.084Z,10.50
2017-09-20T20:43:56.813Z,10.50
2017-09-20T20:46:24.452Z,10.50
2017-09-20T20:48:52.239Z,10.50
2017-09-20T20:51:19.836Z,10.50
2017-09-20T20:53:47.465Z,10.50
2017-09-20T20:56:15.042Z,10.50
2017-09-20T20:58:42.664Z,10.50
2017-09-20T21:01:11.012Z,10.70
2017-09-20T21:03:38.650Z,10.60
2017-09-20T21:06:06.270Z,10.70
2017-09-20T21:08:33.872Z,10.70
2017-09-20T21:11:01.499Z,10.80
2017-09-20T21:13:29.093Z,10.70
2017-09-20T21:15:56.716Z,10.70
2017-09-20T21:18:24.460Z,10.70
2017-09-20T21:20:52.086Z,10.70
2017-09-20T21:23:19.710Z,10.70
2017-09-20T21:25:47.343Z,10.70
2017-09-20T21:28:14.969Z,10.70
2017-09-20T21:30:42.583Z,10.60
2017-09-20T21:33:10.943Z,10.70
2017-09-20T21:35:38.605Z,10.70
2017-09-20T21:38:06.194Z,10.80
2017-09-20T21:40:34.523Z,10.90
2017-09-20T21:43:02.161Z,10.80
2017-09-20T21:45:29.825Z,11.00
2017-09-20T21:47:57.453Z,11.00
2017-09-20T21:50:26.025Z,11.10
2017-09-20T21:52:53.635Z,11.10
2017-09-20T21:55:21.217Z,11.20
2017-09-20T21:57:48.826Z,11.20
2017-09-20T22:00:17.247Z,11.30
2017-09-20T22:02:44.811Z,11.30
2017-09-20T22:05:12.465Z,11.40
2017-09-20T22:07:40.043Z,11.50
2017-09-20T22:10:07.632Z,11.60
2017-09-20T22:12:35.216Z,11.60
2017-09-20T22:15:15.494Z,11.80
2017-09-20T22:17:54.996Z,11.80
2017-09-20T22:20:34.622Z,11.90
2017-09-20T22:23:14.295Z,11.90
2017-09-20T22:25:54.555Z,12.00
2017-09-20T22:28:22.926Z,12.00
2017-09-20T22:30:51.483Z,12.00
2017-09-20T22:33:19.078Z,12.00
2017-09-20T22:35:46.634Z,12.00
2017-09-20T22:38:14.226Z,12.00
2017-09-20T22:40:41.827Z,12.00
2017-09-20T22:43:09.399Z,12.00
2017-09-20T22:45:36.972Z,12.00
2017-09-20T22:48:04.666Z,12.00
2017-09-20T22:50:32.258Z,12.00
2017-09-20T22:52:59.823Z,12.00
2017-09-20T22:55:27.413Z,12.00
2017-09-20T22:57:55.767Z,12.00
2017-09-20T23:00:23.382Z,12.00
2017-09-20T23:02:51.798Z,12.00
2017-09-20T23:05:19.462Z,12.00
2017-09-20T23:07:47.053Z,12.00
2017-09-20T23:10:14.621Z,12.00
2017-09-20T23:12:42.178Z,12.00
2017-09-20T23:15:09.761Z,12.00
2017-09-20T23:17:37.375Z,11.90
2017-09-20T23:20:05.056Z,11.90
2017-09-20T23:22:32.622Z,11.80
2017-09-20T23:25:00.205Z,11.80
2017-09-20T23:27:27.814Z,11.80
2017-09-20T23:29:56.155Z,11.80
2017-09-20T23:32:23.805Z,11.70
2017-09-20T23:34:51.370Z,11.80
2017-09-20T23:37:18.952Z,11.70
2017-09-20T23:39:47.034Z,11.70
2017-09-20T23:42:14.615Z,11.70
2017-09-20T23:44:42.969Z,11.60
2017-09-20T23:47:11.498Z,11.50
2017-09-20T23:49:39.091Z,11.50
2017-09-20T23:52:06.646Z,11.50
2017-09-20T23:54:34.210Z,11.40
2017-09-20T23:57:01.793Z,11.40
2017-09-20T23:59:29.355Z,11.40
